createdAt,value
2022-09-26T00:01:13.280Z,10.80
2022-09-26T00:03:42.790Z,10.94
2022-09-26T00:06:09.492Z,10.91
2022-09-26T00:08:37.230Z,10.85
2022-09-26T00:11:07.551Z,10.84
2022-09-26T00:13:37.244Z,10.70
2022-09-26T00:16:04.376Z,10.83
2022-09-26T00:18:31.118Z,10.79
2022-09-26T00:21:24.798Z,10.71
2022-09-26T00:23:52.155Z,10.70
2022-09-26T00:26:21.285Z,10.68
2022-09-26T00:28:48.603Z,10.45
2022-09-26T00:31:21.309Z,10.55
2022-09-26T00:33:48.220Z,10.57
2022-09-26T00:36:15.509Z,10.52
2022-09-26T00:38:42.396Z,10.52
2022-09-26T00:41:09.193Z,10.07
2022-09-26T00:43:46.580Z,10.50
2022-09-26T00:46:43.974Z,10.48
2022-09-26T00:49:29.140Z,10.47
2022-09-26T00:52:18.309Z,10.45
2022-09-26T00:54:49.538Z,10.44
2022-09-26T00:57:21.422Z,10.41
2022-09-26T00:59:52.382Z,10.39
2022-09-26T01:02:19.362Z,10.38
2022-09-26T01:04:47.573Z,9.84
2022-09-26T01:07:20.829Z,10.09
2022-09-26T01:09:48.490Z,9.52
2022-09-26T01:12:16.944Z,10.20
2022-09-26T01:14:45.667Z,9.19
2022-09-26T01:17:15.181Z,9.83
2022-09-26T01:19:54.675Z,10.21
2022-09-26T01:23:02.835Z,9.92
2022-09-26T01:25:47.789Z,10.21
2022-09-26T01:28:17.895Z,10.19
2022-09-26T01:30:57.284Z,9.97
2022-09-26T01:33:24.593Z,10.08
2022-09-26T01:36:12.627Z,10.02
2022-09-26T01:39:31.192Z,9.62
2022-09-26T01:42:18.439Z,9.96
2022-09-26T01:45:12.392Z,9.96
2022-09-26T01:48:13.507Z,10.00
2022-09-26T01:50:50.299Z,9.97
2022-09-26T01:53:26.309Z,10.01
2022-09-26T01:56:14.622Z,9.30
2022-09-26T01:58:57.401Z,9.95
2022-09-26T02:01:29.091Z,9.54
2022-09-26T02:04:01.519Z,9.64
2022-09-26T02:06:40.763Z,8.78
2022-09-26T02:09:26.312Z,9.18
2022-09-26T02:12:01.975Z,8.97
2022-09-26T02:14:35.662Z,9.40
2022-09-26T02:17:12.972Z,9.62
2022-09-26T02:19:51.195Z,9.60
2022-09-26T02:22:18.919Z,9.60
2022-09-26T02:24:45.887Z,9.47
2022-09-26T02:27:12.603Z,9.63
2022-09-26T02:29:40.482Z,8.95
2022-09-26T02:32:16.093Z,9.36
2022-09-26T02:34:45.760Z,9.68
2022-09-26T02:37:15.128Z,7.96
2022-09-26T02:39:46.891Z,9.07
2022-09-26T02:42:21.738Z,9.74
2022-09-26T02:45:04.252Z,9.68
2022-09-26T02:47:40.086Z,9.71
2022-09-26T02:50:33.597Z,9.70
2022-09-26T02:53:27.214Z,9.67
2022-09-26T02:56:19.115Z,9.65
2022-09-26T02:58:59.787Z,9.49
2022-09-26T03:01:41.270Z,9.58
2022-09-26T03:04:23.839Z,9.12
2022-09-26T03:06:56.295Z,9.60
2022-09-26T03:09:25.858Z,9.58
2022-09-26T03:11:54.390Z,9.66
2022-09-26T03:14:21.285Z,9.62
2022-09-26T03:16:50.752Z,8.80
2022-09-26T03:19:29.837Z,9.05
2022-09-26T03:21:57.423Z,9.56
2022-09-26T03:24:24.851Z,8.75
2022-09-26T03:26:51.935Z,8.11
2022-09-26T03:29:20.112Z,9.73
2022-09-26T03:31:50.242Z,9.75
2022-09-26T03:34:18.314Z,9.23
2022-09-26T03:36:46.070Z,9.74
2022-09-26T03:39:14.079Z,9.77
2022-09-26T03:41:50.696Z,7.77
2022-09-26T03:44:21.749Z,9.46
2022-09-26T03:47:08.934Z,9.54
2022-09-26T03:49:40.241Z,9.71
2022-09-26T03:52:10.782Z,9.61
2022-09-26T03:54:37.927Z,9.45
2022-09-26T03:57:04.559Z,9.49
2022-09-26T03:59:34.341Z,9.39
2022-09-26T04:02:01.086Z,7.77
2022-09-26T04:04:28.285Z,9.74
2022-09-26T04:06:54.989Z,9.76
2022-09-26T04:09:22.128Z,9.00
2022-09-26T04:11:51.869Z,9.71
2022-09-26T04:14:19.934Z,9.72
2022-09-26T04:16:50.798Z,9.29
2022-09-26T04:19:28.402Z,9.75
2022-09-26T04:21:55.294Z,9.55
2022-09-26T04:24:21.898Z,9.78
2022-09-26T04:26:48.630Z,9.80
2022-09-26T04:29:15.731Z,9.81
2022-09-26T04:32:19.435Z,8.92
2022-09-26T04:35:06.550Z,9.78
2022-09-26T04:37:37.031Z,9.55
2022-09-26T04:40:04.649Z,9.81
2022-09-26T04:42:36.672Z,7.99
2022-09-26T04:45:05.504Z,9.15
2022-09-26T04:47:32.722Z,9.85
2022-09-26T04:50:26.280Z,9.88
2022-09-26T04:53:06.441Z,9.75
2022-09-26T04:55:36.559Z,8.97
2022-09-26T04:58:03.096Z,9.00
2022-09-26T05:00:30.525Z,9.64
2022-09-26T05:03:02.072Z,10.06
2022-09-26T05:05:31.264Z,9.22
2022-09-26T05:07:57.854Z,10.09
2022-09-26T05:10:24.515Z,8.95
2022-09-26T05:12:59.456Z,9.54
2022-09-26T05:15:26.099Z,10.06
2022-09-26T05:18:00.097Z,10.04
2022-09-26T05:20:31.424Z,9.61
2022-09-26T05:23:03.160Z,9.32
2022-09-26T05:25:55.853Z,10.35
2022-09-26T05:28:24.004Z,9.93
2022-09-26T05:30:51.901Z,10.45
2022-09-26T05:33:21.754Z,8.95
2022-09-26T05:35:53.307Z,10.37
2022-09-26T05:38:20.193Z,9.76
2022-09-26T05:40:59.341Z,10.64
2022-09-26T05:43:29.565Z,9.76
2022-09-26T05:46:05.919Z,10.73
2022-09-26T05:48:39.117Z,10.73
2022-09-26T05:51:14.430Z,10.67
2022-09-26T05:53:45.444Z,10.81
2022-09-26T05:56:18.580Z,10.64
2022-09-26T05:59:00.900Z,10.65
2022-09-26T06:01:46.876Z,10.94
2022-09-26T06:04:26.070Z,10.85
2022-09-26T06:07:17.391Z,11.00
2022-09-26T06:09:44.607Z,9.50
2022-09-26T06:12:29.867Z,11.15
2022-09-26T06:14:57.044Z,10.78
2022-09-26T06:17:24.196Z,11.17
2022-09-26T06:19:50.838Z,9.55
2022-09-26T06:22:19.008Z,10.92
2022-09-26T06:24:47.483Z,10.52
2022-09-26T06:27:15.593Z,10.71
2022-09-26T06:29:42.462Z,9.94
2022-09-26T06:32:08.994Z,10.94
2022-09-26T06:34:41.199Z,10.44
2022-09-26T06:37:26.284Z,10.92
2022-09-26T06:39:58.510Z,10.95
2022-09-26T06:42:25.805Z,11.07
2022-09-26T06:45:18.207Z,11.00
2022-09-26T06:48:08.415Z,11.40
2022-09-26T06:50:57.140Z,10.76
2022-09-26T06:53:24.700Z,10.93
2022-09-26T06:55:51.288Z,11.36
2022-09-26T06:58:18.425Z,11.61
2022-09-26T07:00:54.713Z,11.98
2022-09-26T07:03:45.730Z,12.04
2022-09-26T07:06:36.546Z,12.12
2022-09-26T07:09:08.565Z,12.24
2022-09-26T07:14:39.468Z,11.61
2022-09-26T07:17:17.826Z,12.64
2022-09-26T07:19:53.447Z,12.27
2022-09-26T07:22:52.287Z,12.98
2022-09-26T07:25:19.234Z,12.44
2022-09-26T07:27:50.195Z,12.62
2022-09-26T07:30:17.433Z,13.11
2022-09-26T07:33:03.681Z,13.19
2022-09-26T07:35:50.662Z,12.39
2022-09-26T07:38:18.815Z,13.36
2022-09-26T07:40:46.693Z,13.50
2022-09-26T07:43:20.078Z,13.53
2022-09-26T07:46:09.717Z,13.00
2022-09-26T07:48:55.994Z,13.60
2022-09-26T07:51:41.446Z,13.11
2022-09-26T07:54:12.545Z,13.74
2022-09-26T07:56:58.240Z,13.71
2022-09-26T07:59:54.285Z,13.34
2022-09-26T08:02:42.513Z,13.79
2022-09-26T08:05:12.184Z,13.15
2022-09-26T08:07:38.959Z,13.81
2022-09-26T08:10:21.229Z,14.18
2022-09-26T08:13:14.709Z,14.27
2022-09-26T08:16:10.758Z,14.24
2022-09-26T08:18:42.503Z,14.32
2022-09-26T08:21:09.302Z,14.61
2022-09-26T08:23:36.365Z,14.38
2022-09-26T08:26:23.903Z,14.46
2022-09-26T08:28:56.050Z,14.02
2022-09-26T08:31:22.680Z,14.58
2022-09-26T08:33:49.463Z,13.89
2022-09-26T08:36:16.804Z,14.07
2022-09-26T08:39:02.814Z,14.53
2022-09-26T08:42:12.161Z,14.63
2022-09-26T08:45:47.569Z,14.93
2022-09-26T08:48:50.589Z,15.32
2022-09-26T08:51:29.401Z,15.57
2022-09-26T08:54:16.429Z,15.83
2022-09-26T08:56:55.395Z,15.90
2022-09-26T08:59:29.496Z,16.08
2022-09-26T09:02:00.759Z,16.26
2022-09-26T09:04:44.385Z,16.15
2022-09-26T09:07:20.957Z,15.01
2022-09-26T09:09:49.470Z,15.73
2022-09-26T09:12:53.604Z,15.94
2022-09-26T09:15:59.561Z,16.24
2022-09-26T09:19:02.366Z,16.52
2022-09-26T09:21:58.629Z,16.50
2022-09-26T09:24:58.269Z,16.47
2022-09-26T09:28:08.061Z,16.85
2022-09-26T09:30:57.107Z,17.20
2022-09-26T09:33:59.703Z,17.47
2022-09-26T09:36:44.987Z,17.59
2022-09-26T09:39:36.715Z,17.21
2022-09-26T09:42:36.264Z,17.78
2022-09-26T09:45:12.515Z,17.70
2022-09-26T09:47:40.038Z,17.63
2022-09-26T09:50:24.323Z,17.17
2022-09-26T09:53:09.835Z,16.48
2022-09-26T09:56:06.797Z,17.49
2022-09-26T09:58:59.152Z,17.64
2022-09-26T10:01:35.916Z,17.90
2022-09-26T10:04:27.701Z,18.44
2022-09-26T10:06:55.748Z,19.05
2022-09-26T10:09:38.462Z,19.78
2022-09-26T10:12:31.072Z,20.00
2022-09-26T10:15:22.259Z,18.81
2022-09-26T10:18:24.833Z,19.85
2022-09-26T10:21:12.923Z,19.74
2022-09-26T10:23:44.673Z,19.66
2022-09-26T10:26:31.152Z,19.81
2022-09-26T10:29:00.213Z,19.68
2022-09-26T10:31:39.942Z,19.73
2022-09-26T10:34:27.925Z,19.24
2022-09-26T10:36:56.108Z,19.16
2022-09-26T10:39:48.824Z,18.83
2022-09-26T10:42:21.573Z,16.79
2022-09-26T10:44:50.740Z,17.77
2022-09-26T10:47:22.879Z,17.91
2022-09-26T10:50:17.589Z,17.46
2022-09-26T10:53:08.934Z,17.22
2022-09-26T10:55:43.707Z,17.17
2022-09-26T10:58:18.594Z,17.66
2022-09-26T11:00:51.611Z,17.39
2022-09-26T11:03:41.279Z,17.92
2022-09-26T11:06:36.670Z,17.77
2022-09-26T11:09:20.729Z,17.50
2022-09-26T11:12:30.400Z,17.32
2022-09-26T11:15:14.745Z,17.38
2022-09-26T11:17:50.604Z,16.75
2022-09-26T11:20:27.510Z,17.35
2022-09-26T11:23:07.797Z,16.61
2022-09-26T11:25:54.416Z,16.36
2022-09-26T11:28:32.586Z,15.31
2022-09-26T11:31:30.219Z,16.36
2022-09-26T11:34:26.261Z,16.16
2022-09-26T11:37:30.552Z,16.01
2022-09-26T11:40:21.851Z,15.52
2022-09-26T11:42:55.513Z,15.75
2022-09-26T11:46:04.543Z,15.73
2022-09-26T11:48:49.803Z,15.74
2022-09-26T11:51:42.573Z,15.59
2022-09-26T11:54:21.260Z,15.44
2022-09-26T11:56:58.402Z,15.40
2022-09-26T11:59:38.950Z,15.34
2022-09-26T12:02:20.697Z,15.38
2022-09-26T12:05:15.114Z,15.51
2022-09-26T12:07:52.268Z,15.74
2022-09-26T12:10:25.112Z,16.20
2022-09-26T12:13:13.458Z,15.96
2022-09-26T12:16:01.185Z,17.15
2022-09-26T12:18:54.569Z,17.17
2022-09-26T12:22:07.768Z,17.59
2022-09-26T12:25:08.789Z,20.22
2022-09-26T12:27:42.337Z,21.51
2022-09-26T12:30:17.173Z,21.14
2022-09-26T12:32:49.639Z,19.82
2022-09-26T12:35:42.447Z,19.13
2022-09-26T12:38:28.947Z,18.82
2022-09-26T12:41:14.164Z,18.87
2022-09-26T12:44:04.595Z,17.05
2022-09-26T12:46:59.376Z,18.24
2022-09-26T12:49:42.023Z,17.82
2022-09-26T12:52:27.755Z,17.95
2022-09-26T12:55:08.175Z,18.07
2022-09-26T12:57:46.584Z,17.77
2022-09-26T13:00:23.016Z,17.63
2022-09-26T13:03:24.193Z,17.61
2022-09-26T13:06:13.721Z,17.66
2022-09-26T13:08:40.189Z,17.53
2022-09-26T13:11:33.043Z,17.36
2022-09-26T13:14:08.900Z,17.14
2022-09-26T13:16:47.544Z,16.92
2022-09-26T13:19:34.821Z,16.64
2022-09-26T13:22:05.899Z,16.15
2022-09-26T13:24:43.654Z,15.20
2022-09-26T13:27:22.179Z,16.01
2022-09-26T13:30:00.901Z,16.58
2022-09-26T13:32:53.818Z,16.66
2022-09-26T13:35:23.440Z,16.76
2022-09-26T13:38:09.525Z,16.88
2022-09-26T13:40:43.182Z,16.34
2022-09-26T13:43:12.420Z,17.04
2022-09-26T13:46:00.214Z,16.98
2022-09-26T13:48:50.137Z,16.96
2022-09-26T13:51:26.903Z,16.68
2022-09-26T13:54:03.784Z,15.25
2022-09-26T13:56:43.983Z,15.98
2022-09-26T13:59:14.392Z,16.43
2022-09-26T14:02:32.320Z,16.27
2022-09-26T14:04:58.818Z,16.10
2022-09-26T14:07:55.918Z,15.88
2022-09-26T14:10:25.179Z,15.84
2022-09-26T14:13:00.561Z,15.87
2022-09-26T14:15:50.176Z,15.87
2022-09-26T14:18:41.761Z,15.81
2022-09-26T14:21:12.453Z,15.83
2022-09-26T14:23:43.381Z,16.06
2022-09-26T14:26:11.838Z,16.08
2022-09-26T14:28:39.999Z,15.62
2022-09-26T14:31:37.317Z,16.06
2022-09-26T14:34:11.574Z,15.86
2022-09-26T14:36:38.608Z,15.23
2022-09-26T14:39:05.715Z,14.90
2022-09-26T14:41:34.890Z,14.36
2022-09-26T14:44:16.666Z,14.95
2022-09-26T14:46:43.852Z,14.88
2022-09-26T14:49:26.815Z,14.29
2022-09-26T14:52:01.308Z,14.66
2022-09-26T14:54:40.294Z,14.71
2022-09-26T14:57:21.043Z,14.67
2022-09-26T14:59:48.636Z,14.80
2022-09-26T15:02:15.267Z,14.79
2022-09-26T15:04:58.520Z,14.80
2022-09-26T15:07:25.967Z,13.89
2022-09-26T15:09:58.670Z,14.87
2022-09-26T15:12:40.149Z,14.37
2022-09-26T15:15:45.433Z,14.70
2022-09-26T15:18:34.915Z,14.72
2022-09-26T15:21:22.539Z,14.62
2022-09-26T15:23:52.278Z,14.56
2022-09-26T15:26:32.727Z,13.81
2022-09-26T15:29:00.108Z,14.17
2022-09-26T15:31:29.901Z,13.97
2022-09-26T15:34:01.873Z,13.62
2022-09-26T15:36:30.469Z,13.96
2022-09-26T15:38:57.910Z,14.01
2022-09-26T15:41:43.533Z,13.92
2022-09-26T15:44:22.974Z,13.59
2022-09-26T15:46:51.413Z,13.24
2022-09-26T15:49:23.042Z,13.60
2022-09-26T15:51:55.511Z,13.69
2022-09-26T15:54:28.654Z,13.39
2022-09-26T15:56:59.844Z,13.55
2022-09-26T15:59:33.350Z,13.38
2022-09-26T16:02:01.739Z,13.38
2022-09-26T16:04:30.551Z,13.36
2022-09-26T16:07:03.397Z,13.30
2022-09-26T16:09:35.451Z,13.26
2022-09-26T16:12:05.996Z,12.40
2022-09-26T16:14:40.441Z,13.24
2022-09-26T16:17:32.530Z,12.71
2022-09-26T16:20:04.111Z,13.22
2022-09-26T16:22:40.526Z,13.16
2022-09-26T16:25:19.191Z,13.08
2022-09-26T16:27:52.107Z,12.78
2022-09-26T16:30:23.549Z,12.99
2022-09-26T16:32:55.138Z,12.96
2022-09-26T16:35:29.575Z,12.42
2022-09-26T16:38:02.231Z,12.88
2022-09-26T16:40:34.509Z,12.80
2022-09-26T16:43:15.094Z,12.18
2022-09-26T16:45:56.320Z,12.30
2022-09-26T16:48:52.747Z,12.66
2022-09-26T16:51:21.868Z,12.73
2022-09-26T16:53:53.501Z,12.26
2022-09-26T16:56:23.275Z,12.69
2022-09-26T16:59:02.369Z,12.12
2022-09-26T17:01:47.880Z,12.46
2022-09-26T17:04:20.340Z,12.09
2022-09-26T17:06:50.270Z,12.56
2022-09-26T17:09:28.149Z,12.52
2022-09-26T17:12:00.727Z,12.51
2022-09-26T17:14:40.261Z,12.49
2022-09-26T17:17:13.006Z,12.49
2022-09-26T17:19:41.105Z,11.69
2022-09-26T17:22:15.174Z,11.90
2022-09-26T17:24:42.818Z,12.34
2022-09-26T17:27:19.525Z,12.18
2022-09-26T17:29:51.059Z,12.31
2022-09-26T17:32:28.476Z,12.26
2022-09-26T17:35:00.691Z,12.18
2022-09-26T17:37:28.436Z,12.12
2022-09-26T17:39:55.587Z,10.73
2022-09-26T17:42:23.591Z,12.08
2022-09-26T17:44:50.524Z,11.68
2022-09-26T17:47:18.713Z,11.97
2022-09-26T17:49:52.279Z,11.96
2022-09-26T17:52:31.483Z,12.01
2022-09-26T17:55:02.224Z,12.00
2022-09-26T17:57:33.950Z,11.54
2022-09-26T18:00:10.070Z,11.80
2022-09-26T18:02:46.179Z,9.56
2022-09-26T18:05:28.474Z,11.38
2022-09-26T18:08:01.631Z,11.67
2022-09-26T18:10:33.142Z,11.80
2022-09-26T18:13:02.076Z,11.80
2022-09-26T18:15:29.813Z,11.07
2022-09-26T18:17:56.802Z,11.85
2022-09-26T18:20:33.549Z,10.91
2022-09-26T18:23:00.487Z,10.74
2022-09-26T18:25:27.560Z,11.85
2022-09-26T18:27:56.450Z,11.87
2022-09-26T18:30:23.817Z,11.46
2022-09-26T18:32:56.118Z,11.87
2022-09-26T18:35:25.588Z,11.84
2022-09-26T18:37:55.214Z,11.82
2022-09-26T18:40:24.337Z,11.82
2022-09-26T18:42:53.236Z,11.80
2022-09-26T18:45:25.124Z,11.79
2022-09-26T18:47:51.713Z,11.77
2022-09-26T18:50:26.843Z,11.63
2022-09-26T18:52:53.610Z,11.13
2022-09-26T18:55:41.021Z,11.90
2022-09-26T18:58:25.285Z,10.76
2022-09-26T19:01:05.409Z,11.22
2022-09-26T19:03:34.958Z,11.66
2022-09-26T19:06:11.662Z,11.65
2022-09-26T19:08:40.990Z,12.16
2022-09-26T19:11:13.647Z,12.19
2022-09-26T19:13:41.694Z,11.63
2022-09-26T19:16:11.490Z,12.28
2022-09-26T19:18:38.533Z,12.30
2022-09-26T19:21:12.660Z,11.85
2022-09-26T19:23:39.506Z,12.15
2022-09-26T19:26:07.367Z,12.31
2022-09-26T19:28:36.031Z,12.32
2022-09-26T19:31:03.504Z,12.35
2022-09-26T19:33:30.305Z,12.35
2022-09-26T19:35:57.128Z,11.85
2022-09-26T19:38:25.995Z,10.75
2022-09-26T19:40:53.783Z,11.64
2022-09-26T19:43:21.782Z,12.06
2022-09-26T19:45:52.217Z,12.25
2022-09-26T19:48:22.360Z,12.21
2022-09-26T19:50:50.561Z,10.80
2022-09-26T19:53:19.292Z,11.99
2022-09-26T19:55:50.349Z,11.92
2022-09-26T19:58:19.831Z,11.03
2022-09-26T20:00:52.708Z,11.77
2022-09-26T20:03:32.039Z,11.75
2022-09-26T20:05:58.676Z,11.23
2022-09-26T20:08:27.193Z,11.45
2022-09-26T20:10:55.875Z,11.56
2022-09-26T20:13:23.776Z,11.74
2022-09-26T20:15:50.800Z,11.28
2022-09-26T20:18:24.082Z,11.39
2022-09-26T20:20:55.596Z,11.64
2022-09-26T20:23:27.431Z,9.32
2022-09-26T20:25:56.244Z,11.48
2022-09-26T20:28:23.131Z,11.68
2022-09-26T20:30:54.142Z,11.67
2022-09-26T20:33:22.615Z,11.72
2022-09-26T20:35:53.914Z,11.74
2022-09-26T20:38:31.302Z,11.44
2022-09-26T20:41:02.437Z,11.58
2022-09-26T20:43:33.814Z,11.26
2022-09-26T20:46:08.910Z,10.60
2022-09-26T20:48:37.121Z,11.49
2022-09-26T20:51:15.054Z,11.48
2022-09-26T20:53:41.577Z,11.45
2022-09-26T20:56:16.867Z,11.38
2022-09-26T20:58:44.273Z,11.19
2022-09-26T21:01:15.570Z,11.29
2022-09-26T21:03:50.936Z,11.23
2022-09-26T21:06:21.158Z,11.14
2022-09-26T21:08:48.098Z,11.06
2022-09-26T21:11:21.533Z,10.98
2022-09-26T21:13:48.749Z,10.95
2022-09-26T21:16:18.361Z,10.86
2022-09-26T21:18:47.466Z,10.70
2022-09-26T21:21:29.732Z,10.43
2022-09-26T21:24:24.778Z,10.86
2022-09-26T21:26:51.833Z,10.85
2022-09-26T21:29:18.534Z,10.71
2022-09-26T21:31:49.125Z,10.82
2022-09-26T21:34:20.585Z,10.84
2022-09-26T21:36:48.407Z,10.84
2022-09-26T21:39:18.700Z,10.32
2022-09-26T21:41:49.323Z,10.75
2022-09-26T21:44:24.407Z,10.93
2022-09-26T21:46:51.563Z,10.95
2022-09-26T21:49:18.623Z,10.99
2022-09-26T21:51:48.884Z,10.90
2022-09-26T21:54:21.092Z,11.01
2022-09-26T21:56:54.719Z,10.61
2022-09-26T21:59:23.631Z,11.05
2022-09-26T22:01:50.147Z,9.88
2022-09-26T22:04:16.780Z,10.75
2022-09-26T22:06:43.441Z,8.74
2022-09-26T22:09:10.298Z,11.05
2022-09-26T22:11:37.574Z,10.99
2022-09-26T22:14:04.862Z,10.55
2022-09-26T22:16:31.460Z,10.73
2022-09-26T22:18:58.526Z,11.00
2022-09-26T22:21:25.110Z,11.02
2022-09-26T22:23:52.153Z,10.53
2022-09-26T22:26:19.421Z,10.97
2022-09-26T22:28:46.014Z,11.08
2022-09-26T22:31:12.773Z,10.93
2022-09-26T22:33:39.270Z,11.14
2022-09-26T22:36:05.902Z,11.17
2022-09-26T22:38:35.016Z,11.21
2022-09-26T22:41:04.170Z,11.18
2022-09-26T22:43:31.978Z,11.12
2022-09-26T22:46:03.348Z,10.76
2022-09-26T22:48:31.819Z,11.02
2022-09-26T22:50:58.739Z,11.01
2022-09-26T22:53:25.492Z,10.87
2022-09-26T22:55:54.700Z,11.03
2022-09-26T22:58:25.832Z,10.99
2022-09-26T23:00:52.466Z,11.00
2022-09-26T23:03:18.966Z,10.95
2022-09-26T23:05:51.092Z,10.94
2022-09-26T23:08:17.663Z,10.46
2022-09-26T23:10:51.266Z,10.88
2022-09-26T23:13:18.798Z,10.49
2022-09-26T23:15:45.898Z,9.89
2022-09-26T23:18:13.308Z,10.39
2022-09-26T23:20:43.807Z,10.95
2022-09-26T23:23:12.099Z,10.83
2022-09-26T23:25:46.739Z,10.54
2022-09-26T23:28:14.027Z,10.97
2022-09-26T23:30:41.131Z,10.84
2022-09-26T23:33:08.613Z,11.01
2022-09-26T23:35:35.183Z,11.06
2022-09-26T23:38:03.241Z,10.86
2022-09-26T23:40:32.207Z,10.93
2022-09-26T23:42:59.036Z,10.71
2022-09-26T23:45:26.883Z,10.38
2022-09-26T23:47:53.922Z,10.78
2022-09-26T23:50:20.756Z,10.55
2022-09-26T23:52:47.247Z,10.74
2022-09-26T23:55:14.039Z,10.69
2022-09-26T23:57:40.783Z,10.66
